Time;durP1;ratioP1;P1;durP2;ratioP2;P2;SDS_P1;SDS_P2;PMS_P1;PMS_P2;Temp;Humidity;BMP_temperature;BMP_pressure;BME280_temperature;BME280_humidity;BME280_pressure;Samples;Min_cycle;Max_cycle;Signal;HPM_P1;HPM_P2
2023/10/27 00:04:58;;;;;;;14.03;9.77;;;13.60;99.40;;;;;;10414976;28;20414;-64
2023/10/27 00:09:58;;;;;;;14.57;9.50;;;13.70;99.40;;;;;;10411914;28;20791;-64
2023/10/27 00:14:59;;;;;;;13.90;9.03;;;13.60;99.40;;;;;;10409613;28;20982;-64
2023/10/27 00:19:59;;;;;;;14.93;9.57;;;13.60;99.40;;;;;;10408845;28;20413;-65
2023/10/27 00:25:00;;;;;;;14.10;9.50;;;13.60;99.40;;;;;;10408961;28;20418;-64
2023/10/27 00:30:01;;;;;;;13.33;8.90;;;13.60;99.40;;;;;;10406882;28;20705;-64
2023/10/27 00:35:01;;;;;;;13.97;9.43;;;13.60;99.40;;;;;;10409989;28;20417;-64
2023/10/27 00:40:03;;;;;;;15.10;9.65;;;13.60;99.40;;;;;;10410873;28;20391;-64
2023/10/27 00:45:04;;;;;;;14.13;9.20;;;13.60;99.50;;;;;;10413704;28;20843;-64
2023/10/27 00:50:06;;;;;;;14.20;9.50;;;13.60;99.40;;;;;;10413982;28;20509;-64
2023/10/27 00:55:07;;;;;;;14.60;9.40;;;13.60;99.40;;;;;;10406677;28;20972;-65
2023/10/27 01:00:08;;;;;;;14.93;9.70;;;13.60;99.40;;;;;;10404423;28;20435;-64
2023/10/27 01:05:09;;;;;;;14.55;9.35;;;13.60;99.40;;;;;;10405405;28;20406;-64
2023/10/27 01:10:09;;;;;;;14.13;9.43;;;13.60;99.40;;;;;;10409401;28;20772;-64
2023/10/27 01:15:10;;;;;;;14.80;9.67;;;13.60;99.40;;;;;;10412466;28;20475;-64
2023/10/27 01:20:11;;;;;;;14.77;9.77;;;12.30;99.10;;;;;;10403809;28;20795;-65
2023/10/27 01:25:12;;;;;;;15.67;9.83;;;13.60;99.40;;;;;;10413662;28;20406;-64
2023/10/27 01:30:13;;;;;;;16.20;10.00;;;13.50;99.40;;;;;;10411510;28;20809;-64
2023/10/27 01:35:14;;;;;;;16.80;10.00;;;13.60;99.40;;;;;;10415985;28;20415;-64
2023/10/27 01:40:15;;;;;;;19.05;10.63;;;13.60;99.40;;;;;;10418521;28;20446;-64
2023/10/27 01:45:16;;;;;;;18.63;10.80;;;13.60;99.40;;;;;;10411538;28;20441;-64
2023/10/27 01:50:16;;;;;;;17.30;10.30;;;13.60;99.40;;;;;;10413195;28;20411;-64
2023/10/27 01:55:17;;;;;;;19.73;10.60;;;13.60;99.50;;;;;;10411559;28;20415;-64
2023/10/27 02:00:18;;;;;;;20.05;10.70;;;13.60;99.40;;;;;;10405932;28;20387;-64
2023/10/27 02:05:18;;;;;;;18.40;10.27;;;13.60;99.40;;;;;;10411877;28;20407;-64
2023/10/27 02:10:19;;;;;;;19.57;10.97;;;13.50;99.40;;;;;;10399497;28;20894;-65
2023/10/27 02:15:20;;;;;;;18.93;11.40;;;13.50;99.40;;;;;;10399978;28;20809;-64
2023/10/27 02:20:20;;;;;;;19.77;11.27;;;13.50;99.40;;;;;;10390487;28;20443;-64
2023/10/27 02:25:21;;;;;;;19.58;11.15;;;13.50;99.40;;;;;;10401012;28;20777;-65
2023/10/27 02:30:21;;;;;;;19.30;11.03;;;13.50;99.40;;;;;;10399043;28;20799;-64
2023/10/27 02:35:24;;;;;;;20.40;11.20;;;13.50;99.40;;;;;;10393118;28;20781;-64
2023/10/27 02:40:25;;;;;;;20.40;11.40;;;13.50;99.40;;;;;;10404848;28;20398;-64
2023/10/27 02:45:26;;;;;;;20.20;11.43;;;13.80;99.50;;;;;;10406496;28;20427;-65
2023/10/27 02:50:27;;;;;;;21.43;11.93;;;13.50;99.40;;;;;;10424082;28;20413;-64
2023/10/27 02:55:27;;;;;;;21.58;12.13;;;13.50;99.40;;;;;;10409475;28;20485;-65
2023/10/27 03:00:28;;;;;;;20.70;11.47;;;13.70;99.50;;;;;;10403976;28;20393;-65
2023/10/27 03:05:28;;;;;;;20.27;11.60;;;13.50;99.40;;;;;;10431029;28;20949;-65
2023/10/27 03:10:31;;;;;;;21.17;11.87;;;13.80;99.50;;;;;;10406064;28;20963;-64
2023/10/27 03:15:32;;;;;;;22.17;11.77;;;13.50;99.40;;;;;;10399730;28;20933;-65
2023/10/27 03:20:32;;;;;;;21.47;11.50;;;13.50;99.40;;;;;;10409010;28;20565;-64
2023/10/27 03:25:33;;;;;;;21.20;12.17;;;13.50;99.40;;;;;;10406045;28;20633;-64
2023/10/27 03:30:34;;;;;;;22.57;12.80;;;13.50;99.40;;;;;;10415756;28;20408;-65
2023/10/27 03:35:37;;;;;;;22.27;12.57;;;13.50;99.40;;;;;;10411524;28;20411;-64
2023/10/27 03:40:38;;;;;;;22.77;12.55;;;13.50;99.40;;;;;;10407289;28;20466;-65
2023/10/27 03:45:39;;;;;;;23.70;12.48;;;13.50;99.40;;;;;;10405196;28;20410;-64
2023/10/27 03:50:39;;;;;;;22.47;12.10;;;13.50;99.40;;;;;;10400492;28;20894;-64
2023/10/27 03:55:40;;;;;;;23.17;12.35;;;13.50;99.50;;;;;;10416185;28;20414;-64
2023/10/27 04:00:41;;;;;;;22.53;12.40;;;13.50;99.50;;;;;;10415154;28;20418;-65
2023/10/27 04:05:41;;;;;;;23.47;12.63;;;13.50;99.50;;;;;;10414897;28;20899;-65
2023/10/27 04:10:42;;;;;;;20.43;11.87;;;13.50;99.50;;;;;;10410926;28;20446;-65
2023/10/27 04:15:44;;;;;;;23.73;12.93;;;13.50;99.70;;;;;;10401356;28;20407;-65
2023/10/27 04:20:45;;;;;;;24.03;13.10;;;13.50;99.40;;;;;;10406143;28;20399;-65
2023/10/27 04:25:47;;;;;;;23.70;12.60;;;13.50;99.40;;;;;;10419922;28;20407;-64
2023/10/27 04:30:48;;;;;;;24.43;12.83;;;13.40;99.40;;;;;;10416490;28;20397;-65
2023/10/27 04:35:49;;;;;;;23.60;12.63;;;13.40;99.40;;;;;;10408375;28;21047;-65
2023/10/27 04:40:51;;;;;;;22.48;12.50;;;13.40;99.70;;;;;;10405200;28;20399;-64
2023/10/27 04:45:52;;;;;;;23.52;12.48;;;13.40;99.40;;;;;;10413420;28;20488;-65
2023/10/27 04:50:55;;;;;;;26.77;13.53;;;14.10;99.60;;;;;;10418554;28;20890;-64
2023/10/27 04:55:56;;;;;;;23.27;12.30;;;14.00;99.60;;;;;;10404669;28;20429;-63
2023/10/27 05:00:57;;;;;;;23.13;12.40;;;13.40;99.50;;;;;;10403873;28;20796;-64
2023/10/27 05:06:09;;;;;;;23.60;12.53;;;13.50;99.50;;;;;;10403207;28;20749;-64
2023/10/27 05:11:10;;;;;;;25.48;12.50;;;13.40;99.40;;;;;;10409634;28;20402;-64
2023/10/27 05:16:10;;;;;;;25.13;12.83;;;13.50;99.50;;;;;;10398933;28;20406;-64
2023/10/27 05:21:17;;;;;;;22.20;12.20;;;13.40;99.50;;;;;;10405925;28;20406;-65
2023/10/27 05:26:18;;;;;;;24.03;12.67;;;13.40;99.50;;;;;;10401433;28;20748;-63
2023/10/27 05:31:18;;;;;;;24.23;13.32;;;13.40;99.50;;;;;;10409239;28;20692;-64
2023/10/27 05:36:19;;;;;;;23.93;12.70;;;13.40;99.50;;;;;;10400701;28;20422;-64
2023/10/27 05:41:20;;;;;;;22.80;12.07;;;13.40;99.50;;;;;;10406523;28;20456;-64
2023/10/27 05:46:21;;;;;;;25.75;12.68;;;13.40;99.50;;;;;;10404579;28;20697;-64
2023/10/27 05:51:22;;;;;;;26.45;12.90;;;13.40;99.50;;;;;;10409874;28;20917;-63
2023/10/27 05:56:22;;;;;;;25.00;12.73;;;13.40;99.50;;;;;;10397743;28;20425;-63
2023/10/27 06:01:23;;;;;;;23.50;12.85;;;13.40;99.50;;;;;;10401196;28;20426;-63
2023/10/27 06:06:24;;;;;;;27.87;13.63;;;13.40;99.50;;;;;;10386921;28;20403;-64
2023/10/27 06:11:25;;;;;;;25.52;13.40;;;13.40;99.50;;;;;;10400048;28;20407;-63
2023/10/27 06:16:25;;;;;;;25.67;12.93;;;13.40;99.50;;;;;;10408638;28;20922;-64
2023/10/27 06:21:27;;;;;;;27.58;12.70;;;13.40;99.50;;;;;;10402457;28;20395;-64
2023/10/27 06:26:27;;;;;;;27.45;13.30;;;13.40;99.50;;;;;;10396453;28;21295;-64
2023/10/27 06:31:28;;;;;;;25.45;13.23;;;13.40;99.50;;;;;;10401991;28;20562;-64
2023/10/27 06:36:30;;;;;;;26.60;13.50;;;13.40;99.50;;;;;;10393747;28;20403;-64
2023/10/27 06:41:31;;;;;;;25.67;13.15;;;13.40;99.50;;;;;;10402563;28;20925;-64
2023/10/27 06:46:32;;;;;;;22.05;11.63;;;13.40;99.50;;;;;;10401396;28;20868;-65
2023/10/27 06:51:32;;;;;;;28.33;13.33;;;13.40;99.90;;;;;;10392573;28;20474;-64
2023/10/27 06:56:33;;;;;;;28.03;13.50;;;13.70;99.90;;;;;;10394681;28;20397;-64
2023/10/27 07:01:34;;;;;;;28.17;13.32;;;13.70;99.90;;;;;;10393314;28;20403;-64
2023/10/27 07:06:34;;;;;;;29.00;13.40;;;13.60;99.70;;;;;;10398425;28;20422;-64
2023/10/27 07:11:35;;;;;;;29.30;13.33;;;13.60;99.70;;;;;;10400140;28;20826;-64
2023/10/27 07:16:35;;;;;;;28.13;13.57;;;13.60;99.70;;;;;;10392389;28;20513;-64
2023/10/27 07:21:38;;;;;;;29.20;13.37;;;13.60;99.70;;;;;;10392621;28;20404;-64
2023/10/27 07:26:38;;;;;;;28.85;13.93;;;13.50;99.60;;;;;;10399117;28;20794;-64
2023/10/27 07:31:39;;;;;;;28.40;13.75;;;13.50;99.60;;;;;;10390773;28;20418;-64
2023/10/27 07:36:40;;;;;;;27.10;13.37;;;13.50;99.60;;;;;;10402852;28;20419;-65
2023/10/27 07:41:41;;;;;;;28.90;14.00;;;13.50;99.60;;;;;;10403732;28;21171;-64
2023/10/27 07:46:41;;;;;;;26.80;13.73;;;13.50;99.60;;;;;;10403264;28;20418;-64
2023/10/27 07:51:42;;;;;;;28.23;13.70;;;13.50;99.60;;;;;;10404630;28;20522;-64
2023/10/27 07:56:43;;;;;;;27.57;14.13;;;13.50;99.60;;;;;;10406031;28;20646;-65
2023/10/27 08:01:43;;;;;;;27.95;13.95;;;13.50;99.60;;;;;;10406952;28;20413;-64
2023/10/27 08:06:44;;;;;;;28.77;13.87;;;13.50;99.60;;;;;;10401021;28;20403;-65
2023/10/27 08:11:44;;;;;;;25.87;12.90;;;13.50;99.60;;;;;;10405088;28;20847;-64
2023/10/27 08:16:45;;;;;;;24.63;12.88;;;13.50;99.50;;;;;;10412041;28;20516;-64
2023/10/27 08:21:48;;;;;;;24.73;12.83;;;13.50;99.60;;;;;;10406814;28;20752;-64
2023/10/27 08:26:49;;;;;;;25.42;12.88;;;13.50;99.50;;;;;;10405843;28;20433;-64
2023/10/27 08:31:49;;;;;;;25.63;13.20;;;13.50;99.60;;;;;;10399665;28;20505;-64
2023/10/27 08:36:50;;;;;;;26.55;12.95;;;13.50;99.60;;;;;;10412335;28;20401;-64
2023/10/27 08:41:51;;;;;;;27.30;13.43;;;13.50;99.50;;;;;;10403662;28;20413;-65
2023/10/27 08:46:53;;;;;;;24.33;12.98;;;13.50;99.50;;;;;;10404729;28;20405;-64
2023/10/27 08:51:55;;;;;;;25.33;13.15;;;13.50;99.70;;;;;;10408431;28;20854;-64
2023/10/27 08:56:55;;;;;;;24.35;12.80;;;13.50;99.60;;;;;;10410923;28;21025;-64
2023/10/27 09:01:56;;;;;;;25.38;13.15;;;13.50;99.60;;;;;;10401013;28;20409;-65
2023/10/27 09:06:57;;;;;;;24.47;12.90;;;13.50;99.60;;;;;;10424815;28;20400;-65
2023/10/27 09:11:58;;;;;;;27.20;13.90;;;13.50;99.70;;;;;;10402613;28;20836;-67
2023/10/27 09:17:06;;;;;;;33.63;14.90;;;13.50;99.90;;;;;;10401234;28;20442;-65
2023/10/27 09:22:20;;;;;;;27.02;13.80;;;13.50;99.90;;;;;;10405986;28;20409;-69
2023/10/27 09:27:27;;;;;;;27.90;13.27;;;13.20;99.90;;;;;;10407215;28;20915;-64
2023/10/27 09:32:27;;;;;;;27.08;13.77;;;13.20;99.90;;;;;;10405486;28;20779;-64
2023/10/27 09:37:29;;;;;;;27.13;13.77;;;13.30;99.90;;;;;;10409013;28;20410;-64
2023/10/27 09:42:33;;;;;;;24.90;12.98;;;13.30;99.90;;;;;;10403750;28;20843;-64
2023/10/27 09:47:41;;;;;;;25.58;12.70;;;13.40;99.90;;;;;;10407561;28;20421;-64
2023/10/27 09:52:43;;;;;;;24.40;12.90;;;13.40;99.90;;;;;;10413261;28;20431;-67
2023/10/27 09:57:45;;;;;;;22.57;12.30;;;13.40;99.90;;;;;;10411434;28;20830;-67
2023/10/27 10:02:47;;;;;;;25.08;13.15;;;13.40;99.90;;;;;;10405655;28;20976;-65
2023/10/27 10:07:56;;;;;;;23.55;11.98;;;13.90;99.90;;;;;;10408400;28;20789;-65
2023/10/27 10:13:13;;;;;;;22.98;11.85;;;13.40;99.90;;;;;;10411409;28;20760;-65
2023/10/27 10:18:20;;;;;;;22.83;12.27;;;13.50;99.90;;;;;;10407728;28;20391;-65
2023/10/27 10:23:23;;;;;;;22.27;11.87;;;13.50;99.90;;;;;;10403208;28;20799;-65
2023/10/27 10:28:27;;;;;;;21.17;11.53;;;13.50;99.90;;;;;;10417228;28;20407;-65
2023/10/27 10:33:30;;;;;;;21.50;11.70;;;13.50;99.90;;;;;;10404546;28;20414;-65
2023/10/27 10:38:38;;;;;;;21.05;11.35;;;13.50;99.90;;;;;;10401324;28;20469;-67
2023/10/27 10:43:42;;;;;;;21.20;11.80;;;13.50;99.90;;;;;;10408783;28;20397;-65
2023/10/27 10:48:45;;;;;;;20.05;10.57;;;13.50;99.90;;;;;;10407570;28;20417;-65
2023/10/27 10:53:53;;;;;;;21.30;11.18;;;13.50;99.90;;;;;;10404978;28;20422;-66
2023/10/27 10:58:54;;;;;;;20.92;11.07;;;13.50;99.90;;;;;;10404215;28;20402;-66
2023/10/27 11:03:56;;;;;;;18.53;10.40;;;13.60;99.90;;;;;;10405987;28;20414;-64
2023/10/27 11:08:56;;;;;;;18.13;10.75;;;13.50;99.90;;;;;;10412441;28;20816;-66
2023/10/27 11:13:57;;;;;;;20.67;10.57;;;13.50;99.90;;;;;;10407457;28;20439;-66
2023/10/27 11:18:59;;;;;;;18.20;10.23;;;13.50;99.90;;;;;;10409140;28;20414;-64
2023/10/27 11:24:07;;;;;;;18.13;9.83;;;13.50;99.90;;;;;;10418124;28;20401;-65
2023/10/27 11:29:08;;;;;;;16.95;9.82;;;13.50;99.90;;;;;;10420097;28;20430;-66
2023/10/27 11:34:18;;;;;;;17.35;9.70;;;13.50;99.90;;;;;;10413362;28;20447;-66
2023/10/27 11:39:21;;;;;;;16.83;9.73;;;13.60;99.90;;;;;;10421603;28;20401;-68
2023/10/27 11:44:22;;;;;;;16.17;9.77;;;14.10;99.90;;;;;;10422615;28;20395;-67
2023/10/27 11:49:24;;;;;;;17.58;9.57;;;13.50;99.90;;;;;;10419647;28;20427;-65
2023/10/27 11:54:26;;;;;;;16.13;9.80;;;13.40;99.90;;;;;;10410125;28;20407;-64
2023/10/27 11:59:26;;;;;;;15.77;9.15;;;13.30;99.90;;;;;;10414984;28;20397;-65
2023/10/27 12:04:28;;;;;;;14.70;9.00;;;13.40;99.90;;;;;;10416379;28;20410;-65
2023/10/27 12:09:28;;;;;;;14.25;8.52;;;13.50;99.90;;;;;;10413960;28;20490;-65
2023/10/27 12:14:29;;;;;;;14.47;8.60;;;13.50;99.90;;;;;;10417994;28;20410;-65
2023/10/27 12:19:31;;;;;;;12.52;7.80;;;13.60;99.90;;;;;;10419065;28;20762;-65
2023/10/27 12:24:33;;;;;;;13.07;8.20;;;13.60;99.90;;;;;;10402239;28;20771;-65
2023/10/27 12:29:34;;;;;;;12.05;7.60;;;13.60;99.90;;;;;;10401415;28;20490;-65
2023/10/27 12:34:35;;;;;;;12.60;7.40;;;13.70;99.90;;;;;;10405686;28;20411;-65
2023/10/27 12:39:36;;;;;;;11.10;7.17;;;13.90;99.90;;;;;;10400454;28;20400;-64
2023/10/27 12:44:36;;;;;;;11.83;7.60;;;13.70;99.90;;;;;;10410338;28;20412;-64
2023/10/27 12:49:40;;;;;;;11.77;7.22;;;13.70;99.90;;;;;;10409557;28;21100;-64
2023/10/27 12:54:40;;;;;;;11.48;7.05;;;13.70;99.90;;;;;;10398224;28;20413;-65
2023/10/27 12:59:41;;;;;;;10.10;6.67;;;13.70;99.90;;;;;;10421711;28;20798;-64
2023/10/27 13:04:42;;;;;;;10.70;6.80;;;13.80;99.90;;;;;;10400105;28;20577;-64
2023/10/27 13:09:43;;;;;;;10.02;6.70;;;13.80;99.90;;;;;;10413018;28;20729;-65
2023/10/27 13:14:43;;;;;;;10.60;7.00;;;13.70;99.90;;;;;;10408129;28;20432;-65
2023/10/27 13:19:46;;;;;;;9.47;6.43;;;13.70;99.90;;;;;;10393871;28;20940;-64
2023/10/27 13:24:46;;;;;;;9.33;5.80;;;13.80;99.90;;;;;;10402178;28;20510;-64
2023/10/27 13:29:47;;;;;;;11.77;6.68;;;13.80;99.90;;;;;;10410023;28;20402;-66
2023/10/27 13:34:48;;;;;;;9.53;6.13;;;13.90;99.90;;;;;;10397664;28;20760;-66
2023/10/27 13:39:49;;;;;;;11.82;6.88;;;14.00;99.90;;;;;;10400402;28;20402;-66
2023/10/27 13:44:50;;;;;;;12.10;6.53;;;13.90;99.90;;;;;;10407879;28;20401;-65
2023/10/27 13:49:58;;;;;;;11.05;6.53;;;13.80;99.90;;;;;;10402854;28;20419;-65
2023/10/27 13:55:00;;;;;;;11.23;6.57;;;13.80;99.90;;;;;;10403580;28;20426;-65
2023/10/27 14:00:02;;;;;;;11.37;6.33;;;13.90;99.90;;;;;;10405753;28;20411;-65
2023/10/27 14:05:03;;;;;;;13.18;6.47;;;13.90;99.90;;;;;;10408170;28;20563;-66
2023/10/27 14:10:04;;;;;;;13.07;6.05;;;13.80;99.90;;;;;;10409440;28;20726;-64
2023/10/27 14:15:07;;;;;;;11.27;5.63;;;13.90;99.90;;;;;;10405263;28;20512;-65
2023/10/27 14:20:08;;;;;;;10.43;6.13;;;14.00;99.90;;;;;;10407842;28;20407;-66
2023/10/27 14:25:08;;;;;;;10.07;5.82;;;13.90;99.90;;;;;;10407420;28;20963;-67
2023/10/27 14:34:02;;;;;;;10.20;5.28;;;14.80;99.90;;;;;;10520173;27;20382;-67
2023/10/27 14:39:05;;;;;;;9.98;5.28;;;15.50;99.90;;;;;;10491480;28;20556;-66
2023/10/27 14:44:06;;;;;;;11.65;5.38;;;15.50;99.90;;;;;;10496548;28;20410;-66
2023/10/27 14:49:07;;;;;;;8.30;5.37;;;15.30;99.90;;;;;;10497734;28;20896;-67
2023/10/27 14:54:07;;;;;;;9.00;5.30;;;15.10;99.90;;;;;;10501892;28;20401;-67
2023/10/27 14:59:08;;;;;;;8.33;5.10;;;14.90;99.90;;;;;;10501345;28;20540;-66
2023/10/27 15:04:10;;;;;;;9.30;5.20;;;14.80;99.90;;;;;;10497657;28;20411;-65
2023/10/27 15:09:13;;;;;;;8.68;5.10;;;14.70;99.90;;;;;;10501583;28;20442;-65
2023/10/27 15:14:14;;;;;;;9.45;5.07;;;14.90;99.90;;;;;;10480935;28;21784;-65
2023/10/27 15:19:17;;;;;;;7.93;4.60;;;14.60;99.90;;;;;;10487687;28;20469;-64
2023/10/27 15:24:18;;;;;;;6.95;4.85;;;14.50;99.90;;;;;;10472855;28;20481;-65
2023/10/27 15:29:19;;;;;;;7.22;4.60;;;14.50;99.90;;;;;;10494734;28;20772;-65
2023/10/27 15:34:20;;;;;;;7.38;4.68;;;14.40;99.90;;;;;;10521797;28;20415;-65
2023/10/27 15:39:21;;;;;;;8.63;4.50;;;14.40;99.90;;;;;;10534412;28;20433;-65
2023/10/27 15:44:22;;;;;;;6.53;4.65;;;14.40;99.90;;;;;;10516441;28;20494;-65
2023/10/27 15:49:23;;;;;;;7.07;4.33;;;14.40;99.90;;;;;;10507342;28;20451;-65
2023/10/27 15:54:23;;;;;;;6.90;4.50;;;14.30;99.90;;;;;;10500467;28;20800;-66
2023/10/27 15:59:24;;;;;;;10.23;4.60;;;14.30;99.90;;;;;;10493854;28;20861;-66
2023/10/27 16:04:25;;;;;;;7.25;4.63;;;14.30;99.90;;;;;;10498041;28;20488;-67
2023/10/27 16:09:29;;;;;;;6.13;4.23;;;14.20;99.90;;;;;;10502475;28;20409;-66
2023/10/27 16:14:31;;;;;;;7.13;4.90;;;14.20;99.90;;;;;;10505661;28;20398;-67
2023/10/27 16:19:31;;;;;;;7.32;4.53;;;14.20;99.90;;;;;;10497693;28;20440;-66
2023/10/27 16:24:32;;;;;;;6.10;4.00;;;14.20;99.90;;;;;;10498837;28;20713;-65
2023/10/27 16:29:36;;;;;;;6.60;4.20;;;14.20;99.90;;;;;;10486793;28;20515;-65
2023/10/27 16:34:36;;;;;;;6.37;4.37;;;14.20;99.90;;;;;;10492019;28;20405;-65
2023/10/27 16:39:37;;;;;;;6.70;4.00;;;14.20;99.90;;;;;;10489004;28;20408;-66
2023/10/27 16:44:38;;;;;;;5.43;3.70;;;14.20;99.90;;;;;;10490460;28;20498;-66
2023/10/27 16:49:39;;;;;;;8.02;4.25;;;14.20;99.90;;;;;;10491063;28;20425;-66
2023/10/27 16:54:40;;;;;;;6.57;4.30;;;14.20;99.90;;;;;;10489737;28;20437;-66
2023/10/27 16:59:44;;;;;;;6.00;4.18;;;14.10;99.90;;;;;;10488127;28;20409;-66
2023/10/27 17:04:46;;;;;;;6.60;3.90;;;14.20;99.90;;;;;;10490658;28;20509;-66
2023/10/27 17:09:50;;;;;;;6.00;3.95;;;14.20;99.90;;;;;;10488396;28;20421;-65
2023/10/27 17:14:51;;;;;;;6.07;3.97;;;14.10;99.90;;;;;;10482868;28;20783;-66
2023/10/27 17:19:51;;;;;;;5.90;3.80;;;14.20;99.90;;;;;;10489443;28;20408;-66
2023/10/27 17:24:54;;;;;;;6.75;4.10;;;14.10;99.90;;;;;;10492302;28;20414;-66
2023/10/27 17:29:54;;;;;;;5.67;4.17;;;14.10;99.90;;;;;;10492934;28;20402;-65
2023/10/27 17:34:56;;;;;;;7.53;4.07;;;14.10;99.90;;;;;;10488099;28;20507;-67
2023/10/27 17:39:56;;;;;;;6.90;4.10;;;14.10;99.90;;;;;;10492597;28;20785;-65
2023/10/27 17:44:57;;;;;;;6.07;4.13;;;14.30;99.90;;;;;;10481995;28;20874;-66
2023/10/27 17:49:58;;;;;;;5.85;3.90;;;14.10;99.90;;;;;;10473704;28;20731;-65
2023/10/27 17:54:59;;;;;;;6.50;4.10;;;14.10;99.90;;;;;;10487462;28;20872;-64
2023/10/27 17:59:59;;;;;;;5.25;3.55;;;14.10;99.90;;;;;;10493322;28;20398;-63
2023/10/27 18:05:00;;;;;;;5.65;3.97;;;14.10;99.90;;;;;;10480261;28;20517;-64
2023/10/27 18:10:02;;;;;;;5.70;3.83;;;14.10;99.90;;;;;;10486771;28;20544;-64
2023/10/27 18:15:03;;;;;;;4.88;3.53;;;14.00;99.90;;;;;;10486861;28;20437;-64
2023/10/27 18:20:06;;;;;;;5.32;3.90;;;14.00;99.90;;;;;;10484705;28;20494;-64
2023/10/27 18:25:07;;;;;;;5.22;3.45;;;14.10;99.90;;;;;;10483355;28;20451;-65
2023/10/27 18:30:08;;;;;;;5.68;3.70;;;14.00;99.90;;;;;;10485318;28;20514;-64
2023/10/27 18:35:09;;;;;;;5.97;3.73;;;14.00;99.90;;;;;;10492027;28;20405;-65
2023/10/27 18:40:09;;;;;;;5.95;3.90;;;14.00;99.90;;;;;;10485174;28;20428;-65
2023/10/27 18:45:11;;;;;;;5.28;3.55;;;14.00;99.90;;;;;;10490144;28;20760;-64
2023/10/27 18:50:12;;;;;;;5.07;3.65;;;14.00;99.90;;;;;;10485917;28;20431;-64
2023/10/27 18:55:13;;;;;;;4.97;3.58;;;14.00;99.90;;;;;;10490319;28;20843;-64
2023/10/27 19:00:13;;;;;;;5.30;3.53;;;13.90;99.90;;;;;;10489844;28;20401;-65
2023/10/27 19:05:14;;;;;;;5.47;3.40;;;14.00;99.90;;;;;;10487607;28;20483;-65
2023/10/27 19:10:15;;;;;;;5.70;3.80;;;14.00;99.90;;;;;;10481945;28;20982;-65
2023/10/27 19:15:17;;;;;;;5.10;3.73;;;14.00;99.90;;;;;;10488706;28;20918;-65
2023/10/27 19:20:17;;;;;;;5.20;3.33;;;14.00;99.90;;;;;;10495819;28;20415;-65
2023/10/27 19:25:18;;;;;;;5.30;3.70;;;13.90;99.90;;;;;;10482088;28;20823;-64
2023/10/27 19:30:18;;;;;;;5.10;3.88;;;14.00;99.90;;;;;;10493044;28;20419;-65
2023/10/27 19:35:19;;;;;;;4.87;3.97;;;14.00;99.90;;;;;;10491369;28;20415;-65
2023/10/27 19:40:20;;;;;;;5.03;3.50;;;13.90;99.90;;;;;;10491794;28;20914;-65
2023/10/27 19:45:20;;;;;;;5.00;3.50;;;13.90;99.90;;;;;;10496350;28;20411;-65
2023/10/27 19:50:22;;;;;;;4.80;3.60;;;13.90;99.90;;;;;;10488146;28;20451;-65
2023/10/27 19:55:24;;;;;;;4.85;3.30;;;13.90;99.90;;;;;;10492213;28;20915;-65
2023/10/27 20:00:29;;;;;;;4.90;3.33;;;13.90;99.90;;;;;;10491644;28;20495;-65
2023/10/27 20:05:29;;;;;;;3.87;3.10;;;13.90;99.90;;;;;;10495125;28;20907;-65
2023/10/27 20:10:36;;;;;;;4.63;3.20;;;13.90;99.90;;;;;;10491802;28;20453;-66
2023/10/27 20:15:39;;;;;;;4.00;3.28;;;13.90;99.90;;;;;;10491813;28;20673;-65
2023/10/27 20:20:45;;;;;;;4.65;3.30;;;14.40;99.90;;;;;;10491366;28;20413;-65
2023/10/27 20:25:46;;;;;;;4.57;3.30;;;13.90;99.90;;;;;;10485500;28;20476;-65
2023/10/27 20:30:47;;;;;;;4.15;2.97;;;13.90;99.90;;;;;;10491872;28;20928;-66
2023/10/27 20:35:48;;;;;;;4.43;2.90;;;13.90;99.90;;;;;;10487848;28;20424;-65
2023/10/27 20:40:50;;;;;;;3.88;2.78;;;13.90;99.90;;;;;;10486900;28;20405;-65
2023/10/27 20:45:50;;;;;;;4.97;3.10;;;14.00;99.90;;;;;;10489520;28;20907;-65
2023/10/27 20:50:51;;;;;;;3.72;2.90;;;13.90;99.90;;;;;;10496946;28;20427;-65
2023/10/27 20:55:51;;;;;;;4.40;3.00;;;13.90;99.90;;;;;;10498914;28;20463;-65
2023/10/27 21:00:53;;;;;;;4.17;2.87;;;13.90;99.90;;;;;;10495124;28;20907;-65
2023/10/27 21:05:53;;;;;;;4.37;3.13;;;13.90;99.90;;;;;;10495585;28;20419;-65
2023/10/27 21:10:54;;;;;;;4.00;2.95;;;14.00;99.90;;;;;;10494059;28;20462;-65
2023/10/27 21:15:55;;;;;;;4.22;3.17;;;13.80;99.90;;;;;;10490221;28;20413;-65
2023/10/27 21:20:55;;;;;;;4.50;2.80;;;13.80;99.90;;;;;;10487304;28;21083;-64
2023/10/27 21:25:59;;;;;;;3.73;2.90;;;13.90;99.90;;;;;;10481401;28;20416;-64
2023/10/27 21:31:00;;;;;;;3.97;3.00;;;13.80;99.90;;;;;;10483803;28;20845;-65
2023/10/27 21:36:04;;;;;;;4.30;3.08;;;13.80;99.90;;;;;;10482843;28;20396;-64
2023/10/27 21:41:05;;;;;;;4.53;3.10;;;13.90;99.90;;;;;;10486244;28;20431;-65
2023/10/27 21:46:06;;;;;;;4.30;3.20;;;13.90;99.90;;;;;;10487639;28;20448;-64
2023/10/27 21:51:08;;;;;;;5.07;3.20;;;13.80;99.90;;;;;;10475352;28;20476;-65
2023/10/27 21:56:10;;;;;;;4.30;3.00;;;13.80;99.90;;;;;;10492370;28;20710;-64
2023/10/27 22:01:11;;;;;;;4.68;3.35;;;13.80;99.90;;;;;;10490160;28;20721;-64
2023/10/27 22:06:11;;;;;;;4.53;3.50;;;13.80;99.90;;;;;;10490191;28;20913;-64
2023/10/27 22:11:14;;;;;;;5.22;3.58;;;14.40;99.90;;;;;;10493541;28;20413;-65
2023/10/27 22:16:15;;;;;;;5.20;3.80;;;13.90;99.90;;;;;;10499675;28;20397;-65
2023/10/27 22:21:15;;;;;;;6.25;4.35;;;13.80;99.90;;;;;;10496803;28;20406;-66
2023/10/27 22:26:16;;;;;;;6.20;4.27;;;13.90;99.90;;;;;;10506010;28;20405;-65
2023/10/27 22:31:17;;;;;;;7.25;4.80;;;13.80;99.90;;;;;;10494407;28;20424;-65
2023/10/27 22:36:19;;;;;;;6.43;4.50;;;13.80;99.90;;;;;;10492193;28;20425;-65
2023/10/27 22:41:21;;;;;;;7.82;5.15;;;13.80;99.90;;;;;;10491674;28;21168;-65
2023/10/27 22:46:22;;;;;;;9.85;5.88;;;14.00;99.90;;;;;;10493194;28;20439;-66
2023/10/27 22:51:22;;;;;;;9.07;6.07;;;13.80;99.90;;;;;;10486789;28;20970;-65
2023/10/27 22:56:23;;;;;;;10.17;6.63;;;13.80;99.90;;;;;;10504057;28;20405;-65
2023/10/27 23:01:23;;;;;;;9.50;6.10;;;13.80;99.90;;;;;;10500176;28;20449;-64
2023/10/27 23:06:24;;;;;;;10.20;6.60;;;13.80;99.90;;;;;;10495462;28;20426;-66
2023/10/27 23:11:24;;;;;;;11.30;7.03;;;13.80;99.90;;;;;;10508401;28;20415;-65
2023/10/27 23:16:26;;;;;;;12.60;7.20;;;13.80;99.90;;;;;;10506268;28;20450;-65
2023/10/27 23:21:26;;;;;;;11.50;7.57;;;13.80;99.90;;;;;;10499389;28;20405;-66
2023/10/27 23:26:27;;;;;;;12.60;7.70;;;13.80;99.90;;;;;;10502921;28;20406;-65
2023/10/27 23:31:28;;;;;;;11.77;7.70;;;13.70;99.90;;;;;;10505609;28;21005;-66
2023/10/27 23:36:32;;;;;;;12.32;7.85;;;13.70;99.90;;;;;;10502080;28;20888;-66
2023/10/27 23:41:33;;;;;;;13.00;7.83;;;13.80;99.90;;;;;;10497297;28;20461;-65
2023/10/27 23:46:34;;;;;;;13.65;8.07;;;13.80;99.90;;;;;;10506843;28;20498;-66
2023/10/27 23:51:34;;;;;;;13.60;8.43;;;13.80;99.90;;;;;;10503106;28;20420;-64
2023/10/27 23:56:35;;;;;;;12.82;8.27;;;13.70;99.90;;;;;;10502434;28;20402;-65
